Time;durP1;ratioP1;P1;durP2;ratioP2;P2;SDS_P1;SDS_P2;PMS_P1;PMS_P2;Temp;Humidity;BMP_temperature;BMP_pressure;BME280_temperature;BME280_humidity;BME280_pressure;Samples;Min_cycle;Max_cycle;Signal;HPM_P1;HPM_P2
2022/11/24 00:04:35;;;;;;;21.77;6.38;;;;;;;5.78;100.00;100178.94;10432096;28;20041;-84
2022/11/24 00:09:35;;;;;;;20.52;6.05;;;;;;;6.00;100.00;100178.41;10447838;28;20485;-84
2022/11/24 00:14:36;;;;;;;14.38;4.35;;;;;;;5.84;100.00;100179.28;10449430;28;20090;-83
2022/11/24 00:19:36;;;;;;;25.85;7.70;;;;;;;5.90;100.00;100181.31;10484917;28;20041;-83
2022/11/24 00:24:37;;;;;;;17.77;7.00;;;;;;;6.00;100.00;100187.13;10449135;28;20041;-83
2022/11/24 00:29:37;;;;;;;26.60;6.63;;;;;;;5.82;100.00;100191.28;10446443;28;20037;-83
2022/11/24 00:34:38;;;;;;;25.30;5.07;;;;;;;5.83;100.00;100193.94;10457650;28;20041;-83
2022/11/24 00:39:39;;;;;;;16.38;7.45;;;;;;;5.85;100.00;100199.25;10446571;28;20044;-83
2022/11/24 00:44:39;;;;;;;22.10;6.82;;;;;;;5.82;100.00;100199.94;10446612;28;20542;-85
2022/11/24 00:49:40;;;;;;;16.95;4.93;;;;;;;5.70;100.00;100212.25;10445959;28;20045;-82
2022/11/24 00:54:40;;;;;;;21.40;6.22;;;;;;;5.68;100.00;100214.78;10487528;28;20393;-82
2022/11/24 00:59:41;;;;;;;19.67;5.65;;;;;;;5.56;100.00;100219.25;10446794;28;20462;-82
2022/11/24 01:04:41;;;;;;;13.18;4.22;;;;;;;5.44;100.00;100209.06;10432630;28;20510;-81
2022/11/24 01:09:44;;;;;;;13.77;4.72;;;;;;;5.53;100.00;100219.09;10486820;28;20051;-82
2022/11/24 01:14:44;;;;;;;17.75;5.75;;;;;;;5.51;100.00;100226.75;10487554;28;20036;-85
2022/11/24 01:19:48;;;;;;;16.23;5.50;;;;;;;5.43;100.00;100231.53;10488944;28;20039;-84
2022/11/24 01:24:48;;;;;;;14.50;5.53;;;;;;;5.24;100.00;100232.13;10452473;28;20484;-84
2022/11/24 01:29:49;;;;;;;26.55;7.72;;;;;;;5.27;100.00;100236.63;10427911;28;20029;-85
2022/11/24 01:34:49;;;;;;;18.58;5.57;;;;;;;5.39;100.00;100237.34;10421482;28;20045;-84
2022/11/24 01:39:50;;;;;;;27.30;5.28;;;;;;;5.58;100.00;100233.22;10483643;28;20042;-84
2022/11/24 01:45:24;;;;;;;14.68;5.32;;;;;;;5.50;100.00;100244.88;10466114;28;20403;-83
2022/11/24 01:50:24;;;;;;;19.08;6.50;;;;;;;5.53;100.00;100245.91;10411336;28;20144;-84
2022/11/24 01:55:28;;;;;;;30.25;4.82;;;;;;;5.71;100.00;100242.59;10443259;28;20037;-84
2022/11/24 02:00:29;;;;;;;17.00;6.68;;;;;;;5.97;100.00;100244.09;10443454;28;20045;-83
2022/11/24 02:05:37;;;;;;;21.15;4.85;;;;;;;5.95;100.00;100240.50;10443767;28;20037;-82
2022/11/24 02:10:37;;;;;;;17.88;5.22;;;;;;;5.96;100.00;100238.78;10455779;28;20041;-85
2022/11/24 02:15:38;;;;;;;13.10;4.45;;;;;;;5.97;100.00;100243.19;10471448;28;20041;-84
2022/11/24 02:20:39;;;;;;;24.80;6.40;;;;;;;5.87;100.00;100237.47;10442973;28;20037;-87
2022/11/24 02:25:48;;;;;;;27.23;5.43;;;;;;;5.97;100.00;100249.28;10414011;28;20071;-84
2022/11/24 02:30:49;;;;;;;22.38;6.35;;;;;;;6.09;100.00;100243.91;10442737;28;20503;-84
2022/11/24 02:35:51;;;;;;;39.45;8.70;;;;;;;6.24;100.00;100250.75;10453520;28;20045;-84
2022/11/24 02:40:51;;;;;;;21.77;5.82;;;;;;;6.18;100.00;100253.91;10425584;28;20496;-83
2022/11/24 02:45:52;;;;;;;20.38;7.90;;;;;;;6.31;100.00;100252.88;10440702;28;20039;-83
2022/11/24 02:50:52;;;;;;;22.13;7.68;;;;;;;6.52;100.00;100255.78;10469302;28;20097;-84
2022/11/24 02:55:53;;;;;;;17.02;5.70;;;;;;;6.63;100.00;100258.94;10469310;28;20060;-84
2022/11/24 03:00:54;;;;;;;28.67;10.10;;;;;;;6.71;100.00;100259.34;10440815;28;20041;-84
2022/11/24 03:05:54;;;;;;;35.58;6.25;;;;;;;6.80;100.00;100262.44;10442213;28;20037;-83
2022/11/24 03:10:55;;;;;;;14.65;5.18;;;;;;;6.89;100.00;100262.94;10476533;28;20037;-83
2022/11/24 03:15:55;;;;;;;28.85;9.23;;;;;;;6.86;100.00;100283.59;10470689;28;20033;-83
2022/11/24 03:20:59;;;;;;;17.52;5.53;;;;;;;6.99;100.00;100281.63;10461733;28;20089;-84
2022/11/24 03:26:13;;;;;;;21.73;7.18;;;;;;;7.13;100.00;100277.13;10480979;28;20044;-84
2022/11/24 03:31:14;;;;;;;23.10;7.10;;;;;;;7.01;100.00;100280.00;10478496;28;20492;-84
2022/11/24 03:36:16;;;;;;;14.93;4.93;;;;;;;7.00;100.00;100294.72;10465587;28;20130;-84
2022/11/24 03:41:17;;;;;;;17.98;5.75;;;;;;;7.02;100.00;100298.28;10440927;28;20126;-83
2022/11/24 03:46:17;;;;;;;18.88;5.05;;;;;;;7.06;100.00;100304.56;10445730;28;20446;-82
2022/11/24 03:51:18;;;;;;;28.88;8.25;;;;;;;7.18;100.00;100302.59;10474704;28;20047;-83
2022/11/24 03:56:19;;;;;;;19.55;6.13;;;;;;;7.14;100.00;100302.34;10479563;28;20033;-81
2022/11/24 04:01:19;;;;;;;20.10;6.55;;;;;;;7.12;100.00;100309.19;10481844;28;20411;-84
2022/11/24 04:06:20;;;;;;;19.70;7.20;;;;;;;7.12;100.00;100323.09;10480122;28;20048;-81
2022/11/24 04:16:40;;;;;;;22.02;7.93;;;;;;;7.02;100.00;100329.50;10480555;28;20469;-82
2022/11/24 04:21:40;;;;;;;21.35;7.10;;;;;;;7.04;100.00;100325.28;10481999;28;20041;-83
2022/11/24 04:26:41;;;;;;;15.75;4.55;;;;;;;7.09;100.00;100322.94;10440653;28;20050;-82
2022/11/24 04:31:41;;;;;;;25.48;6.82;;;;;;;7.02;100.00;100328.63;10482724;28;20319;-83
2022/11/24 04:36:42;;;;;;;25.38;5.28;;;;;;;6.95;100.00;100332.59;10477553;28;20039;-83
2022/11/24 04:41:42;;;;;;;14.85;5.63;;;;;;;6.83;100.00;100331.94;10487382;28;20063;-83
2022/11/24 04:46:43;;;;;;;29.30;7.85;;;;;;;6.83;100.00;100327.66;10478002;28;20048;-83
2022/11/24 04:51:43;;;;;;;25.60;6.80;;;;;;;6.68;100.00;100335.50;10488399;28;20047;-83
2022/11/24 04:56:44;;;;;;;21.00;5.13;;;;;;;6.62;100.00;100348.16;10453353;28;20033;-82
2022/11/24 05:01:45;;;;;;;24.83;5.80;;;;;;;6.50;100.00;100344.88;10428369;28;20037;-81
2022/11/24 05:06:46;;;;;;;20.67;6.93;;;;;;;6.54;100.00;100358.16;10442834;28;20056;-82
2022/11/24 05:11:46;;;;;;;18.95;6.30;;;;;;;6.60;100.00;100360.19;10488831;28;20400;-81
2022/11/24 05:16:47;;;;;;;43.67;10.65;;;;;;;6.48;100.00;100373.41;10471127;28;20127;-84
2022/11/24 05:21:48;;;;;;;20.23;6.22;;;;;;;6.51;100.00;100378.78;10405716;28;20028;-83
2022/11/24 05:26:48;;;;;;;30.98;8.90;;;;;;;6.46;100.00;100377.63;10424862;28;20944;-85
2022/11/24 05:31:49;;;;;;;17.30;4.90;;;;;;;6.37;100.00;100385.78;10424981;28;20137;-87
2022/11/24 05:36:53;;;;;;;23.50;7.35;;;;;;;6.32;100.00;100390.72;10410376;28;20052;-78
2022/11/24 05:41:53;;;;;;;18.25;5.45;;;;;;;6.19;100.00;100395.13;10412478;28;20482;-82
2022/11/24 05:46:54;;;;;;;19.08;4.93;;;;;;;6.00;100.00;100410.56;10401536;28;20111;-81
2022/11/24 05:51:54;;;;;;;29.48;7.72;;;;;;;5.95;100.00;100400.66;10416308;28;20037;-81
2022/11/24 05:56:55;;;;;;;14.57;5.20;;;;;;;5.84;100.00;100410.41;10444383;28;20098;-82
2022/11/24 06:01:55;;;;;;;11.00;5.32;;;;;;;5.83;100.00;100419.00;10432800;28;20068;-80
2022/11/24 06:06:56;;;;;;;11.65;4.35;;;;;;;5.77;100.00;100416.94;10407356;28;20041;-81
2022/11/24 06:11:57;;;;;;;18.10;4.60;;;;;;;5.60;100.00;100436.69;10427740;28;20045;-86
2022/11/24 06:16:57;;;;;;;15.05;3.50;;;;;;;5.43;100.00;100440.84;10442512;28;20120;-83
2022/11/24 06:21:58;;;;;;;12.15;2.75;;;;;;;5.64;100.00;100455.94;10415703;28;20503;-84
2022/11/24 06:26:59;;;;;;;12.80;3.05;;;;;;;5.79;100.00;100467.25;10425214;28;20476;-81
2022/11/24 06:31:59;;;;;;;12.68;3.97;;;;;;;5.94;100.00;100471.59;10467719;28;20059;-85
2022/11/24 06:37:00;;;;;;;9.25;1.95;;;;;;;6.17;100.00;100478.22;10430602;28;20053;-86
2022/11/24 06:42:00;;;;;;;7.65;1.90;;;;;;;6.41;100.00;100496.94;10435632;28;20047;-86
2022/11/24 06:47:01;;;;;;;6.43;2.25;;;;;;;6.42;99.37;100509.13;10430098;28;20056;-87
2022/11/24 06:52:01;;;;;;;6.47;2.65;;;;;;;6.50;98.14;100499.19;10442690;28;20072;-85
2022/11/24 06:57:05;;;;;;;7.32;2.30;;;;;;;6.54;96.94;100514.16;10434364;28;20407;-85
2022/11/24 07:02:07;;;;;;;5.90;1.48;;;;;;;6.48;97.33;100529.41;10433902;28;20549;-85
2022/11/24 07:07:08;;;;;;;6.32;2.05;;;;;;;6.47;96.60;100532.81;10463440;28;20044;-86
2022/11/24 07:12:08;;;;;;;4.53;1.10;;;;;;;6.47;96.36;100546.69;10452569;28;20060;-93
2022/11/24 07:17:09;;;;;;;4.60;1.40;;;;;;;6.16;97.64;100554.38;10447447;28;20120;-86
2022/11/24 07:22:10;;;;;;;4.40;1.73;;;;;;;5.94;98.10;100572.91;10438345;28;20113;-84
2022/11/24 07:27:10;;;;;;;3.70;1.02;;;;;;;5.87;100.00;100597.63;10448325;28;20043;-83
2022/11/24 07:32:11;;;;;;;5.15;1.90;;;;;;;5.99;100.00;100595.78;10452389;28;20078;-83
2022/11/24 07:37:11;;;;;;;4.90;1.48;;;;;;;6.05;99.68;100613.47;10429559;28;20400;-83
2022/11/24 07:42:12;;;;;;;27.23;11.75;;;;;;;6.05;100.00;100623.84;10452912;28;20055;-82
2022/11/24 07:47:12;;;;;;;24.20;10.90;;;;;;;6.15;100.00;100635.72;10451994;28;20049;-82
2022/11/24 07:52:13;;;;;;;7.93;3.83;;;;;;;6.27;100.00;100635.56;10454724;28;20049;-83
2022/11/24 07:57:13;;;;;;;6.95;1.48;;;;;;;6.31;100.00;100645.34;10478928;28;20075;-83
2022/11/24 08:02:14;;;;;;;9.18;3.20;;;;;;;6.41;100.00;100647.72;10482342;28;20094;-83
2022/11/24 08:07:14;;;;;;;6.82;1.83;;;;;;;6.45;99.56;100659.22;10443972;28;20036;-81
2022/11/24 08:12:20;;;;;;;11.20;1.63;;;;;;;6.36;100.00;100662.13;10461264;28;20033;-82
2022/11/24 08:17:20;;;;;;;7.63;2.35;;;;;;;6.15;100.00;100675.59;10447590;28;20056;-82
2022/11/24 08:22:21;;;;;;;9.20;1.92;;;;;;;6.06;100.00;100685.41;10450153;28;20545;-81
2022/11/24 08:27:21;;;;;;;7.43;3.40;;;;;;;5.90;100.00;100695.59;10456164;28;20045;-80
2022/11/24 08:32:22;;;;;;;9.32;4.15;;;;;;;5.97;100.00;100697.78;10447249;28;20406;-81
2022/11/24 08:37:24;;;;;;;11.70;2.15;;;;;;;6.17;100.00;100702.56;10451823;28;20051;-81
2022/11/24 08:42:25;;;;;;;;;;;;;;;6.56;100.00;100717.06;10432778;28;20048;-82
2022/11/24 08:47:25;;;;;;;6.10;1.73;;;;;;;6.91;100.00;100723.50;10464002;28;19921;-82
2022/11/24 08:52:26;;;;;;;10.23;3.05;;;;;;;7.10;98.29;100730.72;10482459;28;20468;-81
2022/11/24 08:57:26;;;;;;;15.35;3.65;;;;;;;7.19;97.98;100735.56;10481074;28;20051;-82
2022/11/24 09:02:27;;;;;;;152.38;95.78;;;;;;;7.07;97.51;100745.22;10450234;28;20382;-82
2022/11/24 09:07:27;;;;;;;18.67;5.45;;;;;;;7.12;98.37;100751.63;10447099;28;20129;-83
2022/11/24 09:12:28;;;;;;;12.25;4.10;;;;;;;7.23;97.43;100765.28;10456279;28;20040;-82
2022/11/24 09:17:28;;;;;;;18.88;3.72;;;;;;;7.48;95.85;100765.91;10449427;28;20065;-82
2022/11/24 09:22:29;;;;;;;6.25;2.30;;;;;;;7.60;95.22;100773.53;10446698;28;20130;-82
2022/11/24 09:27:30;;;;;;;11.90;4.03;;;;;;;7.84;93.38;100775.75;10435164;28;20041;-82
2022/11/24 09:32:31;;;;;;;8.93;3.50;;;;;;;8.13;92.62;100778.22;10443775;28;20124;-83
2022/11/24 09:37:32;;;;;;;8.93;2.70;;;;;;;8.42;91.64;100781.56;10446698;28;20065;-80
2022/11/24 09:42:45;;;;;;;15.68;4.13;;;;;;;10.62;81.84;100766.47;10442281;28;20045;-81
2022/11/24 09:48:02;;;;;;;9.48;2.08;;;;;;;12.49;70.23;100790.88;10443354;28;20619;-84
2022/11/24 09:53:16;;;;;;;7.45;2.60;;;;;;;13.73;64.76;100790.06;10451312;28;20478;-82
2022/11/24 09:58:42;;;;;;;10.23;2.47;;;;;;;13.36;62.80;100801.94;10404417;28;20041;-84
2022/11/24 10:03:51;;;;;;;11.00;2.70;;;;;;;13.76;62.81;100811.22;10371675;28;20048;-84
2022/11/24 10:09:06;;;;;;;6.65;2.70;;;;;;;13.83;61.64;100803.53;10444330;28;20044;-82
2022/11/24 10:14:25;;;;;;;8.48;3.35;;;;;;;14.14;60.00;100807.16;10442335;28;20040;-84
2022/11/24 10:20:03;;;;;;;6.10;2.88;;;;;;;14.29;59.22;100804.16;10453304;28;20041;-83
2022/11/24 10:25:25;;;;;;;8.32;2.28;;;;;;;14.01;60.77;100809.41;10359047;28;20518;-83
2022/11/24 10:30:25;;;;;;;10.30;3.23;;;;;;;14.77;57.87;100826.69;10427922;28;20075;-83
2022/11/24 10:35:44;;;;;;;13.18;3.45;;;;;;;15.43;55.66;100830.31;10426188;28;20049;-83
2022/11/24 10:41:02;;;;;;;9.07;3.55;;;;;;;15.66;55.53;100830.03;10424277;28;20871;-83
2022/11/24 10:46:24;;;;;;;8.35;2.55;;;;;;;15.59;54.74;100834.25;10440693;28;20113;-83
2022/11/24 10:51:43;;;;;;;11.30;3.45;;;;;;;15.43;55.21;100835.59;10485210;28;20488;-83
2022/11/24 10:56:44;;;;;;;10.88;3.88;;;;;;;13.65;60.10;100849.41;10482208;28;20044;-83
2022/11/24 11:01:44;;;;;;;14.98;3.28;;;;;;;12.18;65.50;100847.41;10482509;28;20101;-83
2022/11/24 11:06:45;;;;;;;14.95;3.05;;;;;;;11.75;68.77;100851.72;10465434;28;20172;-83
2022/11/24 11:11:47;;;;;;;10.90;3.30;;;;;;;12.33;67.92;100845.41;10483894;28;20037;-83
2022/11/24 11:16:50;;;;;;;11.02;2.88;;;;;;;13.48;63.21;100843.56;10468382;28;20052;-84
2022/11/24 11:22:05;;;;;;;5.50;3.35;;;;;;;13.56;61.57;100851.72;10440903;28;20037;-83
2022/11/24 11:27:24;;;;;;;8.85;3.15;;;;;;;12.81;64.83;100850.72;10413553;28;20109;-84
2022/11/24 11:32:26;;;;;;;12.43;3.65;;;;;;;12.16;66.07;100842.09;10454232;28;20049;-83
2022/11/24 11:37:27;;;;;;;7.13;3.47;;;;;;;12.93;66.21;100846.81;10449792;28;20056;-83
2022/11/24 11:42:34;;;;;;;8.93;2.27;;;;;;;13.89;60.83;100838.84;10426554;28;20427;-86
2022/11/24 11:47:47;;;;;;;8.00;4.18;;;;;;;13.55;62.16;100852.56;10473066;28;20044;-83
2022/11/24 11:53:12;;;;;;;10.80;3.00;;;;;;;12.63;65.58;100842.19;10442551;28;20497;-80
2022/11/24 11:58:22;;;;;;;11.27;2.63;;;;;;;14.21;61.46;100835.47;10446008;28;20052;-79
2022/11/24 12:03:51;;;;;;;8.38;3.17;;;;;;;14.00;59.55;100841.81;10438677;28;20033;-78
2022/11/24 12:09:16;;;;;;;12.90;3.67;;;;;;;13.72;62.01;100835.63;10439012;28;20056;-80
2022/11/24 12:14:23;;;;;;;8.02;2.53;;;;;;;13.56;62.24;100843.84;10470299;28;20048;-81
2022/11/24 12:19:42;;;;;;;14.40;3.50;;;;;;;13.24;63.16;100841.81;10442308;28;20132;-80
2022/11/24 12:24:58;;;;;;;15.55;4.35;;;;;;;14.68;58.54;100848.34;10423281;28;20045;-79
2022/11/24 12:30:03;;;;;;;7.97;3.33;;;;;;;14.53;58.08;100852.31;10437640;28;20049;-82
2022/11/24 12:35:21;;;;;;;11.75;4.10;;;;;;;14.03;60.04;100852.44;10413656;28;20380;-83
2022/11/24 12:40:36;;;;;;;20.90;4.82;;;;;;;13.91;61.21;100855.59;10436986;28;20041;-84
2022/11/24 12:45:51;;;;;;;13.80;4.90;;;;;;;14.19;61.30;100853.88;10453671;28;20116;-84
2022/11/24 12:50:54;;;;;;;12.13;4.18;;;;;;;14.60;59.66;100863.03;10438055;28;20186;-81
2022/11/24 12:55:57;;;;;;;12.68;4.15;;;;;;;14.88;57.91;100856.88;10428255;28;20071;-81
2022/11/24 13:01:00;;;;;;;10.75;2.67;;;;;;;14.06;60.95;100859.56;10463019;28;20035;-80
2022/11/24 13:06:10;;;;;;;14.35;4.90;;;;;;;13.94;61.39;100855.69;10487543;28;20040;-80
2022/11/24 13:11:40;;;;;;;13.52;3.30;;;;;;;13.31;64.38;100853.44;10488359;28;20033;-81
2022/11/24 13:16:48;;;;;;;29.52;5.32;;;;;;;12.58;65.02;100850.75;10485302;28;20043;-81
2022/11/24 13:21:58;;;;;;;18.80;3.97;;;;;;;12.52;66.48;100851.38;10485620;28;20392;-81
2022/11/24 13:27:14;;;;;;;12.65;3.55;;;;;;;12.49;67.17;100864.38;10488379;28;20067;-81
2022/11/24 13:32:17;;;;;;;7.22;2.50;;;;;;;12.87;65.32;100856.22;10487441;28;20049;-81
2022/11/24 13:37:19;;;;;;;10.38;3.83;;;;;;;14.15;61.30;100856.34;10483267;28;20036;-82
2022/11/24 13:42:20;;;;;;;9.10;3.83;;;;;;;15.33;58.51;100852.00;10455042;28;20451;-84
2022/11/24 13:47:29;;;;;;;10.03;4.17;;;;;;;15.69;55.34;100853.84;10444345;28;20386;-85
2022/11/24 13:52:39;;;;;;;9.75;3.05;;;;;;;15.60;56.05;100859.78;10444902;28;20044;-84
2022/11/24 13:57:40;;;;;;;6.35;2.70;;;;;;;14.74;57.67;100850.31;10444678;28;20094;-85
2022/11/24 14:02:41;;;;;;;13.48;4.53;;;;;;;13.45;61.15;100852.22;10456336;28;20392;-86
2022/11/24 14:07:43;;;;;;;6.93;3.25;;;;;;;13.05;63.99;100849.03;10455506;28;20037;-82
2022/11/24 14:12:43;;;;;;;12.13;2.92;;;;;;;11.50;69.18;100853.31;10422846;28;20381;-81
2022/11/24 14:17:44;;;;;;;19.55;3.85;;;;;;;10.64;73.71;100858.13;10443660;28;20124;-81
2022/11/24 14:22:44;;;;;;;12.38;4.95;;;;;;;10.14;77.14;100842.66;10442621;28;20376;-81
2022/11/24 14:27:45;;;;;;;11.32;3.90;;;;;;;9.68;80.63;100844.78;10443766;28;20033;-81
2022/11/24 14:33:14;;;;;;;15.68;3.40;;;;;;;9.19;83.75;100852.69;10442640;28;20485;-81
2022/11/24 14:38:14;;;;;;;17.20;5.55;;;;;;;8.91;85.39;100851.19;10437534;28;20598;-81
2022/11/24 14:43:28;;;;;;;11.23;4.32;;;;;;;8.64;87.61;100856.69;10425334;28;20076;-81
2022/11/24 14:48:36;;;;;;;12.02;2.85;;;;;;;8.22;89.96;100859.56;10427302;28;20037;-81
2022/11/24 14:53:40;;;;;;;16.80;5.10;;;;;;;7.98;92.35;100853.84;10440655;28;20485;-81
2022/11/24 14:58:41;;;;;;;35.17;7.75;;;;;;;7.80;93.28;100857.16;10441086;28;20461;-81
2022/11/24 15:03:41;;;;;;;20.40;4.50;;;;;;;7.59;94.68;100860.28;10440712;28;20132;-81
2022/11/24 15:08:44;;;;;;;8.30;3.38;;;;;;;7.39;96.22;100877.34;10409079;28;20504;-82
2022/11/24 15:13:52;;;;;;;16.73;4.88;;;;;;;7.25;98.06;100880.81;10398842;28;20049;-82
2022/11/24 15:19:02;;;;;;;20.63;5.03;;;;;;;7.30;97.87;100888.09;10377290;28;20033;-79
2022/11/24 15:24:21;;;;;;;14.43;3.78;;;;;;;7.20;98.25;100881.44;10383258;28;20378;-80
2022/11/24 15:29:22;;;;;;;8.85;4.95;;;;;;;7.11;98.39;100891.28;10440111;28;20068;-80
2022/11/24 15:34:22;;;;;;;14.25;3.45;;;;;;;6.86;99.99;100891.44;10455505;28;20133;-80
2022/11/24 15:39:23;;;;;;;10.75;4.10;;;;;;;6.56;100.00;100886.06;10482795;28;20033;-79
2022/11/24 15:44:23;;;;;;;9.68;3.22;;;;;;;6.59;100.00;100889.78;10442913;28;20034;-83
2022/11/24 15:49:24;;;;;;;20.15;4.18;;;;;;;6.66;100.00;100893.66;10449793;28;20048;-83
2022/11/24 15:54:26;;;;;;;11.25;3.65;;;;;;;6.51;100.00;100901.41;10450883;28;20127;-88
2022/11/24 15:59:26;;;;;;;9.52;3.40;;;;;;;6.14;100.00;100904.19;10445712;28;20370;-84
2022/11/24 16:04:27;;;;;;;16.63;4.47;;;;;;;5.80;100.00;100913.19;10439030;28;20049;-81
2022/11/24 16:09:28;;;;;;;19.70;3.35;;;;;;;5.67;100.00;100913.16;10406110;28;20551;-85
2022/11/24 16:14:28;;;;;;;22.00;4.90;;;;;;;5.42;100.00;100924.44;10424609;28;20048;-83
2022/11/24 16:19:29;;;;;;;14.07;4.20;;;;;;;5.27;100.00;100927.78;10438387;28;20045;-83
2022/11/24 16:24:30;;;;;;;17.52;4.93;;;;;;;5.13;100.00;100928.50;10471089;28;20484;-83
2022/11/24 16:29:30;;;;;;;30.77;5.97;;;;;;;5.37;100.00;100931.94;10473987;28;20051;-82
2022/11/24 16:34:31;;;;;;;10.25;4.25;;;;;;;5.26;100.00;100935.47;10444266;28;20501;-82
2022/11/24 16:39:31;;;;;;;18.20;6.68;;;;;;;5.37;100.00;100938.78;10444632;28;20131;-83
2022/11/24 16:44:33;;;;;;;17.08;6.20;;;;;;;5.59;100.00;100941.19;10407363;28;20053;-83
2022/11/24 16:49:33;;;;;;;14.93;5.03;;;;;;;5.92;100.00;100930.38;10452140;28;20483;-86
2022/11/24 16:54:34;;;;;;;11.38;5.35;;;;;;;5.94;100.00;100928.78;10457655;28;20124;-83
2022/11/24 16:59:34;;;;;;;16.35;5.45;;;;;;;5.90;100.00;100929.38;10451146;28;20396;-86
2022/11/24 17:04:35;;;;;;;15.73;3.30;;;;;;;5.72;100.00;100925.66;10468018;28;20590;-85
2022/11/24 17:09:35;;;;;;;18.77;5.80;;;;;;;5.52;100.00;100920.81;10440211;28;20051;-85
2022/11/24 17:14:36;;;;;;;11.38;4.38;;;;;;;5.63;100.00;100926.72;10428851;28;20049;-84
2022/11/24 17:19:36;;;;;;;17.73;5.88;;;;;;;5.62;100.00;100920.63;10481924;28;20443;-88
2022/11/24 17:24:37;;;;;;;17.05;5.65;;;;;;;5.65;100.00;100933.84;10485930;28;20041;-87
2022/11/24 17:29:37;;;;;;;14.27;4.38;;;;;;;5.78;100.00;100921.69;10482287;28;20147;-86
2022/11/24 17:34:38;;;;;;;16.40;5.75;;;;;;;5.80;100.00;100920.97;10485308;28;20077;-88
2022/11/24 17:39:38;;;;;;;13.85;6.45;;;;;;;5.81;100.00;100922.78;10450487;28;20496;-87
2022/11/24 17:44:39;;;;;;;14.10;5.32;;;;;;;5.90;100.00;100926.78;10486638;28;20049;-87
2022/11/24 17:49:40;;;;;;;21.13;6.18;;;;;;;5.91;100.00;100929.50;10482274;28;20041;-86
2022/11/24 17:54:40;;;;;;;13.13;3.28;;;;;;;5.87;100.00;100932.69;10466699;28;20052;-87
2022/11/24 17:59:41;;;;;;;17.55;3.55;;;;;;;5.86;100.00;100933.50;10465708;28;20120;-87
2022/11/24 18:04:41;;;;;;;19.88;6.13;;;;;;;5.84;100.00;100922.09;10484099;28;20063;-87
2022/11/24 18:09:42;;;;;;;19.20;4.03;;;;;;;5.80;100.00;100939.16;10482047;28;20464;-88
2022/11/24 18:14:43;;;;;;;12.90;4.57;;;;;;;5.76;100.00;100931.94;10484540;28;20072;-90
2022/11/24 18:19:44;;;;;;;19.92;7.40;;;;;;;5.69;100.00;100930.66;10467667;28;20128;-90
2022/11/24 18:24:45;;;;;;;13.77;3.50;;;;;;;5.65;100.00;100931.22;10460777;28;20046;-88
2022/11/24 18:29:45;;;;;;;20.00;4.57;;;;;;;5.52;99.68;100926.88;10479941;28;20043;-91
2022/11/24 18:34:46;;;;;;;11.13;6.40;;;;;;;5.22;100.00;100928.25;10484517;28;20048;-86
2022/11/24 18:39:46;;;;;;;9.73;5.05;;;;;;;5.18;100.00;100923.66;10479382;28;20029;-85
2022/11/24 18:44:47;;;;;;;14.60;3.75;;;;;;;5.11;100.00;100918.03;10467883;28;20506;-82
2022/11/24 18:49:47;;;;;;;12.65;4.03;;;;;;;5.05;100.00;100919.28;10470962;28;20047;-85
2022/11/24 18:54:50;;;;;;;19.42;7.10;;;;;;;4.88;100.00;100912.91;10416868;28;20460;-84
2022/11/24 18:59:51;;;;;;;14.18;5.75;;;;;;;4.81;100.00;100920.25;10414052;28;20033;-85
2022/11/24 19:04:51;;;;;;;16.92;5.78;;;;;;;4.65;100.00;100922.53;10413751;28;20050;-82
2022/11/24 19:09:52;;;;;;;13.30;4.80;;;;;;;4.41;100.00;100915.66;10412351;28;20102;-85
2022/11/24 19:14:53;;;;;;;22.08;4.30;;;;;;;4.47;100.00;100907.44;10407561;28;20035;-87
2022/11/24 19:19:53;;;;;;;13.73;4.45;;;;;;;4.36;100.00;100910.94;10445708;28;20037;-89
2022/11/24 19:24:54;;;;;;;15.88;4.13;;;;;;;4.41;100.00;100910.47;10468257;28;20115;-80
2022/11/24 19:29:55;;;;;;;9.85;4.25;;;;;;;4.45;100.00;100913.28;10466975;28;20108;-84
2022/11/24 19:34:55;;;;;;;19.85;6.07;;;;;;;4.51;100.00;100914.66;10406499;28;20071;-80
2022/11/24 19:39:56;;;;;;;12.68;3.70;;;;;;;4.22;100.00;100910.81;10401836;28;20034;-82
2022/11/24 19:44:56;;;;;;;9.75;3.67;;;;;;;4.28;100.00;100907.75;10427970;28;20040;-84
2022/11/24 19:49:57;;;;;;;10.40;3.25;;;;;;;4.24;100.00;100911.84;10436929;28;20068;-84
2022/11/24 19:54:58;;;;;;;12.43;3.60;;;;;;;4.19;100.00;100899.31;10455439;28;20051;-81
2022/11/24 19:59:59;;;;;;;10.75;3.65;;;;;;;4.19;100.00;100907.09;10455234;28;20063;-81
2022/11/24 20:04:59;;;;;;;11.35;3.90;;;;;;;4.24;100.00;100910.91;10463633;28;20185;-83
2022/11/24 20:10:00;;;;;;;15.05;4.32;;;;;;;4.06;100.00;100906.16;10483907;28;20044;-82
2022/11/24 20:15:01;;;;;;;11.00;4.57;;;;;;;4.09;100.00;100918.47;10489179;28;20473;-82
2022/11/24 20:20:01;;;;;;;11.10;5.20;;;;;;;3.96;100.00;100917.56;10447799;28;20446;-82
2022/11/24 20:25:02;;;;;;;16.15;6.53;;;;;;;3.88;100.00;100916.06;10469409;28;20049;-84
2022/11/24 20:30:03;;;;;;;17.90;4.68;;;;;;;3.93;100.00;100914.72;10446642;28;20043;-84
2022/11/24 20:35:03;;;;;;;18.02;5.82;;;;;;;4.10;100.00;100907.31;10451907;28;20036;-84
2022/11/24 20:40:05;;;;;;;12.70;5.40;;;;;;;4.11;100.00;100915.19;10421344;28;20090;-83
2022/11/24 20:45:06;;;;;;;14.80;5.75;;;;;;;4.02;100.00;100919.69;10446118;28;20091;-83
2022/11/24 20:50:06;;;;;;;13.50;5.05;;;;;;;4.00;100.00;100918.66;10392860;28;20055;-83
2022/11/24 20:55:07;;;;;;;23.27;7.78;;;;;;;4.19;100.00;100920.03;10444465;28;20041;-83
2022/11/24 21:00:08;;;;;;;14.18;5.28;;;;;;;4.39;100.00;100919.81;10405101;28;20120;-82
2022/11/24 21:05:09;;;;;;;13.80;5.40;;;;;;;4.70;100.00;100916.84;10390394;28;20060;-83
2022/11/24 21:10:09;;;;;;;21.58;6.30;;;;;;;5.04;100.00;100908.00;10409338;28;20041;-82
2022/11/24 21:15:10;;;;;;;13.35;6.75;;;;;;;5.21;100.00;100901.38;10424389;28;20044;-82
2022/11/24 21:20:11;;;;;;;17.67;5.68;;;;;;;5.36;100.00;100901.56;10445851;28;20112;-81
2022/11/24 21:25:12;;;;;;;12.82;3.53;;;;;;;5.50;100.00;100892.13;10404113;28;20551;-80
2022/11/24 21:30:12;;;;;;;13.27;5.32;;;;;;;5.64;100.00;100885.28;10482172;28;20090;-84
2022/11/24 21:35:13;;;;;;;10.45;4.20;;;;;;;5.66;100.00;100877.59;10486905;28;20055;-85
2022/11/24 21:40:14;;;;;;;11.27;3.80;;;;;;;5.69;100.00;100883.00;10468842;28;20076;-85
2022/11/24 21:45:14;;;;;;;15.40;5.60;;;;;;;5.65;100.00;100876.69;10486815;28;20044;-85
2022/11/24 21:50:16;;;;;;;11.10;4.40;;;;;;;5.58;100.00;100874.50;10450807;28;20045;-85
2022/11/24 21:55:16;;;;;;;14.63;3.83;;;;;;;5.48;100.00;100875.53;10427688;28;20124;-85
2022/11/24 22:00:18;;;;;;;12.95;4.70;;;;;;;5.32;100.00;100876.19;10474441;28;20037;-85
2022/11/24 22:05:18;;;;;;;12.52;4.72;;;;;;;5.21;100.00;100862.47;10471393;28;20037;-85
2022/11/24 22:10:19;;;;;;;12.85;3.67;;;;;;;5.05;100.00;100860.53;10461939;28;20048;-84
2022/11/24 22:15:19;;;;;;;13.60;5.65;;;;;;;5.00;100.00;100846.31;10403258;28;20132;-84
2022/11/24 22:20:20;;;;;;;11.70;3.85;;;;;;;4.95;100.00;100834.72;10433185;28;20069;-83
2022/11/24 22:25:20;;;;;;;14.07;5.45;;;;;;;4.83;100.00;100827.88;10442757;28;20043;-85
2022/11/24 22:30:21;;;;;;;16.10;5.47;;;;;;;4.89;100.00;100823.94;10443186;28;20041;-86
2022/11/24 22:35:21;;;;;;;24.63;6.45;;;;;;;5.00;100.00;100822.97;10431900;28;20063;-86
2022/11/24 22:40:23;;;;;;;13.38;3.70;;;;;;;5.16;100.00;100818.84;10413116;28;20144;-86
2022/11/24 22:45:23;;;;;;;18.23;5.00;;;;;;;5.28;100.00;100815.38;10401905;28;20049;-87
2022/11/24 22:50:24;;;;;;;9.02;3.47;;;;;;;5.39;100.00;100803.16;10400451;28;20140;-85
2022/11/24 22:55:24;;;;;;;12.98;4.28;;;;;;;5.46;100.00;100801.84;10401920;28;20047;-85
2022/11/24 23:00:25;;;;;;;9.38;4.47;;;;;;;5.61;100.00;100808.88;10400370;28;20053;-84
2022/11/24 23:05:25;;;;;;;21.90;5.63;;;;;;;5.70;100.00;100813.00;10401049;28;20051;-84
2022/11/24 23:10:26;;;;;;;13.20;3.78;;;;;;;5.82;100.00;100797.31;10424178;28;20107;-87